Hazelhurst, Wisconsin
Current Conditions -  °F | °C
As of 3:35 AM on Tuesday 21 Oct 2014 (Local Time) from KARV Reporting Station
Overcast Overcast  
Wind Chill: 36°   Ceiling: 1100
Heat Index: 39°   Visibility: 10mi
Dew Point: 37°   Wind: 5mph
Humidity: 91%   Direction: 10°N
Pressure: 30.13"   Gusts: NA
Location:  45.81°N, 89.73°W
Report Text: KARV 210835Z AUTO 01004KT 10SM BKN011 OVC019 04/03 A3013 RMK AO2 T00400027
Loading
Personal Weather Stations






























Interactive Weather Map
Tropical Storm Tracking
New forecast layout! Learn more

10-Day Weather Forecast

Advertisements
Track Severe Weather on mobile